ePrivacy and GPDR Cookie Consent by Cookie Consent
EmailTwitter


Observations de surface / Québec / CYUL (71627)

Régions: Québec | Canada | États-Unis | Europe | France | UK | Ailleurs
Station
Affichage
Infos & localisation pour CYUL (71627) | Aide pour décoder les METARs

Observations prises le 2022-01-20 à 14H00 UTC à MONTREAL INTL A, QB (CYUL)

Etat du ciel: quelques nuages.

Température: -16.0 Celsius

Point de rosée: -22.0 Celsius

Humidité relative: 60%

Facteur vent -25.

Vents: Ouest à 17 km/h ou 9 noeuds.

Pression au niveau moyen de la mer: 102.60 kilopascals.

Calage altimétrique: 102.54 kilopascals ou 30.28 pouces de mercure.

Visibilité horizontale: 30.00 milles terrestres ou 48.00 kilomètres.

Observation METAR:

CYUL 201400Z 28009KT 30SM FEW250 M16/M22 A3028 RMK CI1 SLP260=